sensor_id;sensor_type;location;lat;lon;timestamp;temperature;humidity
19258;DHT22;9763;48.780;9.212;2023-05-10T00:02:20;18.00;89.50
19258;DHT22;9763;48.780;9.212;2023-05-10T00:05:49;17.90;89.50
19258;DHT22;9763;48.780;9.212;2023-05-10T00:09:15;17.80;89.40
19258;DHT22;9763;48.780;9.212;2023-05-10T00:12:41;17.70;89.10
19258;DHT22;9763;48.780;9.212;2023-05-10T00:16:05;17.70;89.30
19258;DHT22;9763;48.780;9.212;2023-05-10T00:19:30;17.50;89.30
19258;DHT22;9763;48.780;9.212;2023-05-10T00:22:54;17.50;88.90
19258;DHT22;9763;48.780;9.212;2023-05-10T00:26:19;17.40;89.40
19258;DHT22;9763;48.780;9.212;2023-05-10T00:29:46;17.40;89.50
19258;DHT22;9763;48.780;9.212;2023-05-10T00:33:10;17.30;89.60
19258;DHT22;9763;48.780;9.212;2023-05-10T00:36:35;17.20;90.00
19258;DHT22;9763;48.780;9.212;2023-05-10T00:39:59;17.20;90.00
19258;DHT22;9763;48.780;9.212;2023-05-10T00:43:23;17.20;90.10
19258;DHT22;9763;48.780;9.212;2023-05-10T00:46:46;17.10;90.10
19258;DHT22;9763;48.780;9.212;2023-05-10T00:50:11;17.10;90.10
19258;DHT22;9763;48.780;9.212;2023-05-10T00:53:37;17.10;90.10
19258;DHT22;9763;48.780;9.212;2023-05-10T00:57:00;17.00;90.00
19258;DHT22;9763;48.780;9.212;2023-05-10T01:00:25;17.10;90.30
19258;DHT22;9763;48.780;9.212;2023-05-10T01:03:49;17.00;90.20
19258;DHT22;9763;48.780;9.212;2023-05-10T01:07:12;17.00;90.20
19258;DHT22;9763;48.780;9.212;2023-05-10T01:10:37;16.90;90.00
19258;DHT22;9763;48.780;9.212;2023-05-10T01:14:02;16.90;90.20
19258;DHT22;9763;48.780;9.212;2023-05-10T01:17:27;16.90;90.30
19258;DHT22;9763;48.780;9.212;2023-05-10T01:21:01;16.80;90.20
19258;DHT22;9763;48.780;9.212;2023-05-10T01:24:58;16.80;90.00
19258;DHT22;9763;48.780;9.212;2023-05-10T01:29:05;16.80;89.70
19258;DHT22;9763;48.780;9.212;2023-05-10T01:32:45;16.70;89.60
19258;DHT22;9763;48.780;9.212;2023-05-10T01:36:21;16.70;90.20
19258;DHT22;9763;48.780;9.212;2023-05-10T01:39:58;16.60;90.40
19258;DHT22;9763;48.780;9.212;2023-05-10T01:43:28;16.60;90.30
19258;DHT22;9763;48.780;9.212;2023-05-10T01:47:05;16.60;90.30
19258;DHT22;9763;48.780;9.212;2023-05-10T01:50:36;16.60;90.30
19258;DHT22;9763;48.780;9.212;2023-05-10T01:54:03;16.60;90.70
19258;DHT22;9763;48.780;9.212;2023-05-10T01:57:33;16.50;90.80
19258;DHT22;9763;48.780;9.212;2023-05-10T02:01:01;16.80;90.80
19258;DHT22;9763;48.780;9.212;2023-05-10T02:04:27;16.50;90.80
19258;DHT22;9763;48.780;9.212;2023-05-10T02:07:53;16.50;90.90
19258;DHT22;9763;48.780;9.212;2023-05-10T02:11:18;16.50;90.70
19258;DHT22;9763;48.780;9.212;2023-05-10T02:14:45;16.50;90.90
19258;DHT22;9763;48.780;9.212;2023-05-10T02:18:11;16.50;91.00
19258;DHT22;9763;48.780;9.212;2023-05-10T02:21:37;16.50;91.10
19258;DHT22;9763;48.780;9.212;2023-05-10T02:25:04;16.70;91.20
19258;DHT22;9763;48.780;9.212;2023-05-10T02:28:31;16.60;91.00
19258;DHT22;9763;48.780;9.212;2023-05-10T02:31:57;16.60;91.10
19258;DHT22;9763;48.780;9.212;2023-05-10T02:35:23;16.60;90.90
19258;DHT22;9763;48.780;9.212;2023-05-10T02:38:49;16.70;90.80
19258;DHT22;9763;48.780;9.212;2023-05-10T02:42:23;16.70;90.60
19258;DHT22;9763;48.780;9.212;2023-05-10T02:45:49;16.70;90.70
19258;DHT22;9763;48.780;9.212;2023-05-10T02:49:13;16.60;90.90
19258;DHT22;9763;48.780;9.212;2023-05-10T02:52:40;16.60;91.00
19258;DHT22;9763;48.780;9.212;2023-05-10T02:56:13;16.70;91.10
19258;DHT22;9763;48.780;9.212;2023-05-10T02:59:43;16.70;91.10
19258;DHT22;9763;48.780;9.212;2023-05-10T03:03:07;16.70;91.20
19258;DHT22;9763;48.780;9.212;2023-05-10T03:06:31;16.70;91.50
19258;DHT22;9763;48.780;9.212;2023-05-10T03:09:56;16.80;91.50
19258;DHT22;9763;48.780;9.212;2023-05-10T03:13:29;16.70;91.40
19258;DHT22;9763;48.780;9.212;2023-05-10T03:17:04;16.80;90.90
19258;DHT22;9763;48.780;9.212;2023-05-10T03:20:36;16.80;91.10
19258;DHT22;9763;48.780;9.212;2023-05-10T03:24:08;16.80;90.90
19258;DHT22;9763;48.780;9.212;2023-05-10T03:27:40;16.80;91.10
19258;DHT22;9763;48.780;9.212;2023-05-10T03:31:06;16.80;90.50
19258;DHT22;9763;48.780;9.212;2023-05-10T03:34:32;16.80;90.80
19258;DHT22;9763;48.780;9.212;2023-05-10T03:37:56;16.70;90.80
19258;DHT22;9763;48.780;9.212;2023-05-10T03:41:19;16.70;91.10
19258;DHT22;9763;48.780;9.212;2023-05-10T03:44:43;16.70;91.20
19258;DHT22;9763;48.780;9.212;2023-05-10T03:48:07;16.70;91.20
19258;DHT22;9763;48.780;9.212;2023-05-10T03:51:32;16.70;91.20
19258;DHT22;9763;48.780;9.212;2023-05-10T03:54:56;16.70;91.10
19258;DHT22;9763;48.780;9.212;2023-05-10T03:58:19;16.70;91.30
19258;DHT22;9763;48.780;9.212;2023-05-10T04:01:43;16.70;91.20
19258;DHT22;9763;48.780;9.212;2023-05-10T04:05:08;16.70;91.20
19258;DHT22;9763;48.780;9.212;2023-05-10T04:08:33;16.70;91.20
19258;DHT22;9763;48.780;9.212;2023-05-10T04:11:58;16.70;90.90
19258;DHT22;9763;48.780;9.212;2023-05-10T04:15:22;16.70;90.60
19258;DHT22;9763;48.780;9.212;2023-05-10T04:18:46;16.60;90.60
19258;DHT22;9763;48.780;9.212;2023-05-10T04:22:10;16.60;90.50
19258;DHT22;9763;48.780;9.212;2023-05-10T04:25:35;16.50;90.50
19258;DHT22;9763;48.780;9.212;2023-05-10T04:28:58;16.50;90.60
19258;DHT22;9763;48.780;9.212;2023-05-10T04:32:22;16.50;91.00
19258;DHT22;9763;48.780;9.212;2023-05-10T04:35:46;16.50;91.30
19258;DHT22;9763;48.780;9.212;2023-05-10T04:39:09;16.50;91.40
19258;DHT22;9763;48.780;9.212;2023-05-10T04:42:35;16.50;91.50
19258;DHT22;9763;48.780;9.212;2023-05-10T04:45:58;16.50;91.50
19258;DHT22;9763;48.780;9.212;2023-05-10T04:49:22;16.50;91.60
19258;DHT22;9763;48.780;9.212;2023-05-10T04:52:45;16.50;91.50
19258;DHT22;9763;48.780;9.212;2023-05-10T04:56:08;16.50;91.60
19258;DHT22;9763;48.780;9.212;2023-05-10T04:59:35;16.50;91.80
19258;DHT22;9763;48.780;9.212;2023-05-10T05:02:59;16.60;91.80
19258;DHT22;9763;48.780;9.212;2023-05-10T05:06:23;16.60;92.10
19258;DHT22;9763;48.780;9.212;2023-05-10T05:09:46;16.60;92.20
19258;DHT22;9763;48.780;9.212;2023-05-10T05:13:12;16.60;92.50
19258;DHT22;9763;48.780;9.212;2023-05-10T05:16:37;16.70;92.80
19258;DHT22;9763;48.780;9.212;2023-05-10T05:20:01;16.70;93.50
19258;DHT22;9763;48.780;9.212;2023-05-10T05:23:25;16.90;94.20
19258;DHT22;9763;48.780;9.212;2023-05-10T05:26:48;17.00;94.00
19258;DHT22;9763;48.780;9.212;2023-05-10T05:30:12;17.20;93.80
19258;DHT22;9763;48.780;9.212;2023-05-10T05:33:38;17.10;93.40
19258;DHT22;9763;48.780;9.212;2023-05-10T05:37:01;17.20;92.70
19258;DHT22;9763;48.780;9.212;2023-05-10T05:40:25;17.20;92.90
19258;DHT22;9763;48.780;9.212;2023-05-10T05:43:48;17.20;93.20
19258;DHT22;9763;48.780;9.212;2023-05-10T05:47:12;17.30;93.60
19258;DHT22;9763;48.780;9.212;2023-05-10T05:50:37;17.30;93.20
19258;DHT22;9763;48.780;9.212;2023-05-10T05:54:00;17.30;92.90
19258;DHT22;9763;48.780;9.212;2023-05-10T05:57:26;17.40;93.30
19258;DHT22;9763;48.780;9.212;2023-05-10T06:00:49;17.40;93.50
19258;DHT22;9763;48.780;9.212;2023-05-10T06:04:13;17.40;93.90
19258;DHT22;9763;48.780;9.212;2023-05-10T06:07:39;17.40;93.80
19258;DHT22;9763;48.780;9.212;2023-05-10T06:11:04;17.50;93.70
19258;DHT22;9763;48.780;9.212;2023-05-10T06:14:27;17.50;94.20
19258;DHT22;9763;48.780;9.212;2023-05-10T06:17:51;17.60;94.30
19258;DHT22;9763;48.780;9.212;2023-05-10T06:21:15;17.60;94.30
19258;DHT22;9763;48.780;9.212;2023-05-10T06:24:40;17.70;94.40
19258;DHT22;9763;48.780;9.212;2023-05-10T06:28:03;17.70;94.10
19258;DHT22;9763;48.780;9.212;2023-05-10T06:31:27;17.80;94.50
19258;DHT22;9763;48.780;9.212;2023-05-10T06:34:50;17.90;94.70
19258;DHT22;9763;48.780;9.212;2023-05-10T06:38:14;17.90;94.60
19258;DHT22;9763;48.780;9.212;2023-05-10T06:41:39;17.90;94.50
19258;DHT22;9763;48.780;9.212;2023-05-10T06:45:02;18.00;93.70
19258;DHT22;9763;48.780;9.212;2023-05-10T06:48:27;18.00;93.40
19258;DHT22;9763;48.780;9.212;2023-05-10T06:51:50;18.00;92.90
19258;DHT22;9763;48.780;9.212;2023-05-10T06:55:14;18.00;92.40
19258;DHT22;9763;48.780;9.212;2023-05-10T06:58:39;18.00;92.40
19258;DHT22;9763;48.780;9.212;2023-05-10T07:02:03;17.90;92.30
19258;DHT22;9763;48.780;9.212;2023-05-10T07:05:27;17.90;92.30
19258;DHT22;9763;48.780;9.212;2023-05-10T07:08:51;17.80;92.30
19258;DHT22;9763;48.780;9.212;2023-05-10T07:12:15;17.80;92.30
19258;DHT22;9763;48.780;9.212;2023-05-10T07:15:40;17.80;92.60
19258;DHT22;9763;48.780;9.212;2023-05-10T07:19:04;17.80;92.80
19258;DHT22;9763;48.780;9.212;2023-05-10T07:22:28;17.90;93.70
19258;DHT22;9763;48.780;9.212;2023-05-10T07:25:52;17.90;94.80
19258;DHT22;9763;48.780;9.212;2023-05-10T07:29:15;18.10;95.70
19258;DHT22;9763;48.780;9.212;2023-05-10T07:32:40;18.20;96.30
19258;DHT22;9763;48.780;9.212;2023-05-10T07:36:05;17.30;96.00
19258;DHT22;9763;48.780;9.212;2023-05-10T07:39:28;18.60;96.90
19258;DHT22;9763;48.780;9.212;2023-05-10T07:42:52;18.80;96.90
19258;DHT22;9763;48.780;9.212;2023-05-10T07:46:15;19.20;96.70
19258;DHT22;9763;48.780;9.212;2023-05-10T07:49:40;19.10;95.70
19258;DHT22;9763;48.780;9.212;2023-05-10T07:53:04;19.30;95.10
19258;DHT22;9763;48.780;9.212;2023-05-10T07:56:29;19.30;94.40
19258;DHT22;9763;48.780;9.212;2023-05-10T07:59:54;19.40;92.60
19258;DHT22;9763;48.780;9.212;2023-05-10T08:03:18;19.40;92.20
19258;DHT22;9763;48.780;9.212;2023-05-10T08:06:43;19.30;92.10
19258;DHT22;9763;48.780;9.212;2023-05-10T08:10:08;19.30;90.50
19258;DHT22;9763;48.780;9.212;2023-05-10T08:13:33;19.30;90.70
19258;DHT22;9763;48.780;9.212;2023-05-10T08:16:56;19.20;90.50
19258;DHT22;9763;48.780;9.212;2023-05-10T08:20:20;19.10;89.80
19258;DHT22;9763;48.780;9.212;2023-05-10T08:23:45;19.10;89.90
19258;DHT22;9763;48.780;9.212;2023-05-10T08:27:09;19.00;90.30
19258;DHT22;9763;48.780;9.212;2023-05-10T08:30:32;18.90;91.10
19258;DHT22;9763;48.780;9.212;2023-05-10T08:33:56;18.90;90.60
19258;DHT22;9763;48.780;9.212;2023-05-10T08:37:19;18.90;90.50
19258;DHT22;9763;48.780;9.212;2023-05-10T08:40:44;18.80;90.00
19258;DHT22;9763;48.780;9.212;2023-05-10T08:44:09;18.80;90.60
19258;DHT22;9763;48.780;9.212;2023-05-10T08:47:36;18.80;90.60
19258;DHT22;9763;48.780;9.212;2023-05-10T08:51:02;18.80;90.50
19258;DHT22;9763;48.780;9.212;2023-05-10T08:54:27;18.80;90.80
19258;DHT22;9763;48.780;9.212;2023-05-10T08:57:52;18.80;90.50
19258;DHT22;9763;48.780;9.212;2023-05-10T09:01:16;18.80;90.40
19258;DHT22;9763;48.780;9.212;2023-05-10T09:04:41;18.80;91.40
19258;DHT22;9763;48.780;9.212;2023-05-10T09:08:06;18.90;92.70
19258;DHT22;9763;48.780;9.212;2023-05-10T09:11:31;19.30;92.70
19258;DHT22;9763;48.780;9.212;2023-05-10T09:14:57;19.10;93.00
19258;DHT22;9763;48.780;9.212;2023-05-10T09:18:23;19.30;92.40
19258;DHT22;9763;48.780;9.212;2023-05-10T09:21:49;19.40;92.90
19258;DHT22;9763;48.780;9.212;2023-05-10T09:25:13;19.50;92.60
19258;DHT22;9763;48.780;9.212;2023-05-10T09:28:50;19.60;91.50
19258;DHT22;9763;48.780;9.212;2023-05-10T09:32:17;19.60;87.50
19258;DHT22;9763;48.780;9.212;2023-05-10T09:35:40;19.60;84.90
19258;DHT22;9763;48.780;9.212;2023-05-10T09:39:04;19.50;84.70
19258;DHT22;9763;48.780;9.212;2023-05-10T09:42:28;19.40;85.40
19258;DHT22;9763;48.780;9.212;2023-05-10T09:45:51;19.40;86.40
19258;DHT22;9763;48.780;9.212;2023-05-10T09:49:16;19.40;87.80
19258;DHT22;9763;48.780;9.212;2023-05-10T09:52:47;19.40;89.30
19258;DHT22;9763;48.780;9.212;2023-05-10T09:56:12;19.50;87.80
19258;DHT22;9763;48.780;9.212;2023-05-10T09:59:42;19.60;88.30
19258;DHT22;9763;48.780;9.212;2023-05-10T10:03:12;19.80;88.40
19258;DHT22;9763;48.780;9.212;2023-05-10T10:06:39;19.80;86.30
19258;DHT22;9763;48.780;9.212;2023-05-10T10:10:04;19.90;88.70
19258;DHT22;9763;48.780;9.212;2023-05-10T10:13:33;20.00;89.30
19258;DHT22;9763;48.780;9.212;2023-05-10T10:16:57;20.00;85.60
19258;DHT22;9763;48.780;9.212;2023-05-10T10:20:27;20.10;86.50
19258;DHT22;9763;48.780;9.212;2023-05-10T10:23:52;20.00;85.90
19258;DHT22;9763;48.780;9.212;2023-05-10T10:27:22;20.00;84.00
19258;DHT22;9763;48.780;9.212;2023-05-10T10:30:51;19.90;82.70
19258;DHT22;9763;48.780;9.212;2023-05-10T10:34:25;19.80;84.10
19258;DHT22;9763;48.780;9.212;2023-05-10T10:37:51;19.80;84.40
19258;DHT22;9763;48.780;9.212;2023-05-10T10:41:32;19.80;86.50
19258;DHT22;9763;48.780;9.212;2023-05-10T10:45:11;20.00;86.40
19258;DHT22;9763;48.780;9.212;2023-05-10T10:48:36;20.10;81.70
19258;DHT22;9763;48.780;9.212;2023-05-10T10:52:20;20.20;84.60
19258;DHT22;9763;48.780;9.212;2023-05-10T10:55:46;20.20;80.30
19258;DHT22;9763;48.780;9.212;2023-05-10T10:59:11;20.20;80.90
19258;DHT22;9763;48.780;9.212;2023-05-10T11:02:43;20.10;80.00
19258;DHT22;9763;48.780;9.212;2023-05-10T11:06:10;19.90;75.80
19258;DHT22;9763;48.780;9.212;2023-05-10T11:09:39;19.80;76.30
19258;DHT22;9763;48.780;9.212;2023-05-10T11:13:06;19.50;74.70
19258;DHT22;9763;48.780;9.212;2023-05-10T11:16:41;19.40;75.50
19258;DHT22;9763;48.780;9.212;2023-05-10T11:20:09;19.20;73.20
19258;DHT22;9763;48.780;9.212;2023-05-10T11:23:48;19.10;73.80
19258;DHT22;9763;48.780;9.212;2023-05-10T11:27:13;18.90;73.10
19258;DHT22;9763;48.780;9.212;2023-05-10T11:30:38;18.80;76.50
19258;DHT22;9763;48.780;9.212;2023-05-10T11:34:04;18.80;76.80
19258;DHT22;9763;48.780;9.212;2023-05-10T11:37:28;18.80;76.70
19258;DHT22;9763;48.780;9.212;2023-05-10T11:40:54;18.80;77.60
19258;DHT22;9763;48.780;9.212;2023-05-10T11:44:17;18.80;79.50
19258;DHT22;9763;48.780;9.212;2023-05-10T11:47:41;18.90;79.40
19258;DHT22;9763;48.780;9.212;2023-05-10T11:51:07;19.00;79.20
19258;DHT22;9763;48.780;9.212;2023-05-10T11:54:32;19.10;78.20
19258;DHT22;9763;48.780;9.212;2023-05-10T11:58:00;19.30;78.90
19258;DHT22;9763;48.780;9.212;2023-05-10T12:01:26;19.30;76.80
19258;DHT22;9763;48.780;9.212;2023-05-10T12:04:51;19.30;73.50
19258;DHT22;9763;48.780;9.212;2023-05-10T12:08:20;19.30;74.10
19258;DHT22;9763;48.780;9.212;2023-05-10T12:11:45;19.20;73.20
19258;DHT22;9763;48.780;9.212;2023-05-10T12:15:16;19.20;74.10
19258;DHT22;9763;48.780;9.212;2023-05-10T12:18:41;19.10;73.50
19258;DHT22;9763;48.780;9.212;2023-05-10T12:22:05;19.10;76.10
19258;DHT22;9763;48.780;9.212;2023-05-10T12:25:31;19.10;76.40
19258;DHT22;9763;48.780;9.212;2023-05-10T12:29:12;19.00;74.50
19258;DHT22;9763;48.780;9.212;2023-05-10T12:32:38;19.10;74.40
19258;DHT22;9763;48.780;9.212;2023-05-10T12:36:03;19.10;76.80
19258;DHT22;9763;48.780;9.212;2023-05-10T12:39:38;19.20;76.80
19258;DHT22;9763;48.780;9.212;2023-05-10T12:43:04;19.20;76.70
19258;DHT22;9763;48.780;9.212;2023-05-10T12:46:27;19.40;78.00
19258;DHT22;9763;48.780;9.212;2023-05-10T12:49:51;19.50;76.60
19258;DHT22;9763;48.780;9.212;2023-05-10T12:53:15;19.60;76.30
19258;DHT22;9763;48.780;9.212;2023-05-10T12:56:39;19.70;76.50
19258;DHT22;9763;48.780;9.212;2023-05-10T13:00:07;19.70;75.70
19258;DHT22;9763;48.780;9.212;2023-05-10T13:03:32;19.70;74.80
19258;DHT22;9763;48.780;9.212;2023-05-10T13:06:55;19.70;74.80
19258;DHT22;9763;48.780;9.212;2023-05-10T13:10:21;19.70;75.40
19258;DHT22;9763;48.780;9.212;2023-05-10T13:13:45;19.70;74.80
19258;DHT22;9763;48.780;9.212;2023-05-10T13:17:10;19.60;74.20
19258;DHT22;9763;48.780;9.212;2023-05-10T13:20:34;19.60;74.30
19258;DHT22;9763;48.780;9.212;2023-05-10T13:23:58;19.50;74.20
19258;DHT22;9763;48.780;9.212;2023-05-10T13:27:22;19.40;74.70
19258;DHT22;9763;48.780;9.212;2023-05-10T13:30:46;19.40;75.70
19258;DHT22;9763;48.780;9.212;2023-05-10T13:34:10;19.30;76.20
19258;DHT22;9763;48.780;9.212;2023-05-10T13:37:34;19.40;77.50
19258;DHT22;9763;48.780;9.212;2023-05-10T13:40:59;19.50;79.00
19258;DHT22;9763;48.780;9.212;2023-05-10T13:44:22;19.60;78.90
19258;DHT22;9763;48.780;9.212;2023-05-10T13:47:46;19.80;79.60
19258;DHT22;9763;48.780;9.212;2023-05-10T13:51:11;20.00;78.70
19258;DHT22;9763;48.780;9.212;2023-05-10T13:54:34;20.10;78.50
19258;DHT22;9763;48.780;9.212;2023-05-10T13:57:59;20.20;77.50
19258;DHT22;9763;48.780;9.212;2023-05-10T14:01:22;20.20;77.80
19258;DHT22;9763;48.780;9.212;2023-05-10T14:04:46;20.20;77.00
19258;DHT22;9763;48.780;9.212;2023-05-10T14:08:11;20.30;75.70
19258;DHT22;9763;48.780;9.212;2023-05-10T14:11:36;20.20;76.50
19258;DHT22;9763;48.780;9.212;2023-05-10T14:15:04;20.20;77.30
19258;DHT22;9763;48.780;9.212;2023-05-10T14:18:28;20.20;76.20
19258;DHT22;9763;48.780;9.212;2023-05-10T14:21:52;20.20;75.40
19258;DHT22;9763;48.780;9.212;2023-05-10T14:25:17;20.20;75.60
19258;DHT22;9763;48.780;9.212;2023-05-10T14:28:41;20.20;75.20
19258;DHT22;9763;48.780;9.212;2023-05-10T14:32:05;20.30;75.40
19258;DHT22;9763;48.780;9.212;2023-05-10T14:35:29;20.30;76.10
19258;DHT22;9763;48.780;9.212;2023-05-10T14:38:54;20.30;77.20
19258;DHT22;9763;48.780;9.212;2023-05-10T14:42:18;20.40;75.50
19258;DHT22;9763;48.780;9.212;2023-05-10T14:45:43;20.40;75.30
19258;DHT22;9763;48.780;9.212;2023-05-10T14:49:07;20.50;75.20
19258;DHT22;9763;48.780;9.212;2023-05-10T14:52:31;20.50;74.70
19258;DHT22;9763;48.780;9.212;2023-05-10T14:55:55;20.50;73.20
19258;DHT22;9763;48.780;9.212;2023-05-10T14:59:20;20.50;73.80
19258;DHT22;9763;48.780;9.212;2023-05-10T15:02:44;20.50;74.60
19258;DHT22;9763;48.780;9.212;2023-05-10T15:06:08;20.40;74.30
19258;DHT22;9763;48.780;9.212;2023-05-10T15:09:32;20.40;74.90
19258;DHT22;9763;48.780;9.212;2023-05-10T15:12:56;20.40;75.40
19258;DHT22;9763;48.780;9.212;2023-05-10T15:16:21;20.50;75.10
19258;DHT22;9763;48.780;9.212;2023-05-10T15:19:44;20.50;74.50
19258;DHT22;9763;48.780;9.212;2023-05-10T15:23:08;20.60;75.30
19258;DHT22;9763;48.780;9.212;2023-05-10T15:26:32;20.60;73.60
19258;DHT22;9763;48.780;9.212;2023-05-10T15:29:55;20.60;75.10
19258;DHT22;9763;48.780;9.212;2023-05-10T15:33:20;20.50;74.70
19258;DHT22;9763;48.780;9.212;2023-05-10T15:36:44;20.50;74.10
19258;DHT22;9763;48.780;9.212;2023-05-10T15:40:08;20.40;74.20
19258;DHT22;9763;48.780;9.212;2023-05-10T15:43:32;20.40;74.80
19258;DHT22;9763;48.780;9.212;2023-05-10T15:46:56;20.40;75.40
19258;DHT22;9763;48.780;9.212;2023-05-10T15:50:21;20.40;75.60
19258;DHT22;9763;48.780;9.212;2023-05-10T15:53:44;20.40;75.60
19258;DHT22;9763;48.780;9.212;2023-05-10T15:57:28;20.50;76.30
19258;DHT22;9763;48.780;9.212;2023-05-10T16:00:52;20.50;75.50
19258;DHT22;9763;48.780;9.212;2023-05-10T16:04:15;20.50;73.20
19258;DHT22;9763;48.780;9.212;2023-05-10T16:07:40;20.50;73.50
19258;DHT22;9763;48.780;9.212;2023-05-10T16:11:06;20.40;73.30
19258;DHT22;9763;48.780;9.212;2023-05-10T16:14:30;20.40;72.60
19258;DHT22;9763;48.780;9.212;2023-05-10T16:17:54;20.30;72.00
19258;DHT22;9763;48.780;9.212;2023-05-10T16:21:18;20.20;72.40
19258;DHT22;9763;48.780;9.212;2023-05-10T16:24:43;20.20;72.30
19258;DHT22;9763;48.780;9.212;2023-05-10T16:28:06;20.10;71.30
19258;DHT22;9763;48.780;9.212;2023-05-10T16:31:30;20.00;71.60
19258;DHT22;9763;48.780;9.212;2023-05-10T16:34:54;20.00;72.10
19258;DHT22;9763;48.780;9.212;2023-05-10T16:38:17;20.00;72.10
19258;DHT22;9763;48.780;9.212;2023-05-10T16:41:43;19.90;72.60
19258;DHT22;9763;48.780;9.212;2023-05-10T16:45:08;19.90;72.00
19258;DHT22;9763;48.780;9.212;2023-05-10T16:48:32;19.90;72.70
19258;DHT22;9763;48.780;9.212;2023-05-10T16:51:55;19.90;73.00
19258;DHT22;9763;48.780;9.212;2023-05-10T16:55:19;19.80;73.20
19258;DHT22;9763;48.780;9.212;2023-05-10T16:58:48;19.80;72.90
19258;DHT22;9763;48.780;9.212;2023-05-10T17:02:12;19.80;73.00
19258;DHT22;9763;48.780;9.212;2023-05-10T17:05:36;19.80;73.10
19258;DHT22;9763;48.780;9.212;2023-05-10T17:09:00;20.10;73.40
19258;DHT22;9763;48.780;9.212;2023-05-10T17:12:24;19.90;73.40
19258;DHT22;9763;48.780;9.212;2023-05-10T17:15:49;19.70;73.10
19258;DHT22;9763;48.780;9.212;2023-05-10T17:19:13;19.60;72.90
19258;DHT22;9763;48.780;9.212;2023-05-10T17:22:37;19.60;73.20
19258;DHT22;9763;48.780;9.212;2023-05-10T17:26:03;19.60;73.00
19258;DHT22;9763;48.780;9.212;2023-05-10T17:29:26;19.50;72.80
19258;DHT22;9763;48.780;9.212;2023-05-10T17:32:51;19.50;72.80
19258;DHT22;9763;48.780;9.212;2023-05-10T17:36:15;19.40;72.90
19258;DHT22;9763;48.780;9.212;2023-05-10T17:39:39;19.30;72.80
19258;DHT22;9763;48.780;9.212;2023-05-10T17:43:02;19.30;73.20
19258;DHT22;9763;48.780;9.212;2023-05-10T17:46:26;19.20;72.90
19258;DHT22;9763;48.780;9.212;2023-05-10T17:49:51;19.20;73.30
19258;DHT22;9763;48.780;9.212;2023-05-10T17:53:14;19.10;73.30
19258;DHT22;9763;48.780;9.212;2023-05-10T17:56:38;19.00;73.60
19258;DHT22;9763;48.780;9.212;2023-05-10T18:00:02;18.90;73.80
19258;DHT22;9763;48.780;9.212;2023-05-10T18:03:27;18.90;74.00
19258;DHT22;9763;48.780;9.212;2023-05-10T18:06:52;19.40;74.80
19258;DHT22;9763;48.780;9.212;2023-05-10T18:10:23;18.90;74.20
19258;DHT22;9763;48.780;9.212;2023-05-10T18:13:48;18.80;74.30
19258;DHT22;9763;48.780;9.212;2023-05-10T18:17:11;18.90;74.50
19258;DHT22;9763;48.780;9.212;2023-05-10T18:20:35;18.90;74.50
19258;DHT22;9763;48.780;9.212;2023-05-10T18:24:00;18.70;74.40
19258;DHT22;9763;48.780;9.212;2023-05-10T18:27:24;18.60;74.20
19258;DHT22;9763;48.780;9.212;2023-05-10T18:30:47;18.60;74.50
19258;DHT22;9763;48.780;9.212;2023-05-10T18:34:11;18.50;74.20
19258;DHT22;9763;48.780;9.212;2023-05-10T18:37:35;18.50;74.40
19258;DHT22;9763;48.780;9.212;2023-05-10T18:41:01;18.40;74.50
19258;DHT22;9763;48.780;9.212;2023-05-10T18:44:25;18.30;74.20
19258;DHT22;9763;48.780;9.212;2023-05-10T18:47:50;18.30;74.70
19258;DHT22;9763;48.780;9.212;2023-05-10T18:51:13;18.20;74.60
19258;DHT22;9763;48.780;9.212;2023-05-10T18:54:37;18.10;74.80
19258;DHT22;9763;48.780;9.212;2023-05-10T18:58:02;18.10;74.80
19258;DHT22;9763;48.780;9.212;2023-05-10T19:01:25;18.00;74.70
19258;DHT22;9763;48.780;9.212;2023-05-10T19:04:49;17.90;74.60
19258;DHT22;9763;48.780;9.212;2023-05-10T19:08:12;17.90;75.00
19258;DHT22;9763;48.780;9.212;2023-05-10T19:11:36;17.80;75.10
19258;DHT22;9763;48.780;9.212;2023-05-10T19:15:01;17.80;75.30
19258;DHT22;9763;48.780;9.212;2023-05-10T19:18:25;17.80;75.20
19258;DHT22;9763;48.780;9.212;2023-05-10T19:21:49;17.70;75.10
19258;DHT22;9763;48.780;9.212;2023-05-10T19:25:13;17.70;75.00
19258;DHT22;9763;48.780;9.212;2023-05-10T19:28:39;17.60;75.10
19258;DHT22;9763;48.780;9.212;2023-05-10T19:32:04;17.60;75.40
19258;DHT22;9763;48.780;9.212;2023-05-10T19:35:28;17.50;75.20
19258;DHT22;9763;48.780;9.212;2023-05-10T19:38:51;17.50;75.60
19258;DHT22;9763;48.780;9.212;2023-05-10T19:42:15;17.50;75.90
19258;DHT22;9763;48.780;9.212;2023-05-10T19:45:40;17.40;75.70
19258;DHT22;9763;48.780;9.212;2023-05-10T19:49:05;17.50;75.90
19258;DHT22;9763;48.780;9.212;2023-05-10T19:52:29;17.40;75.90
19258;DHT22;9763;48.780;9.212;2023-05-10T19:55:53;17.50;76.20
19258;DHT22;9763;48.780;9.212;2023-05-10T19:59:17;17.40;76.00
19258;DHT22;9763;48.780;9.212;2023-05-10T20:02:40;17.40;76.40
19258;DHT22;9763;48.780;9.212;2023-05-10T20:06:05;17.40;76.40
19258;DHT22;9763;48.780;9.212;2023-05-10T20:09:29;17.40;76.40
19258;DHT22;9763;48.780;9.212;2023-05-10T20:12:53;17.40;76.70
19258;DHT22;9763;48.780;9.212;2023-05-10T20:16:16;17.40;76.80
19258;DHT22;9763;48.780;9.212;2023-05-10T20:19:40;17.60;77.00
19258;DHT22;9763;48.780;9.212;2023-05-10T20:23:05;17.40;76.70
19258;DHT22;9763;48.780;9.212;2023-05-10T20:26:28;17.40;76.50
19258;DHT22;9763;48.780;9.212;2023-05-10T20:29:52;17.40;76.70
19258;DHT22;9763;48.780;9.212;2023-05-10T20:33:16;17.40;76.80
19258;DHT22;9763;48.780;9.212;2023-05-10T20:36:40;17.40;77.60
19258;DHT22;9763;48.780;9.212;2023-05-10T20:40:06;17.70;77.10
19258;DHT22;9763;48.780;9.212;2023-05-10T20:43:30;17.40;76.50
19258;DHT22;9763;48.780;9.212;2023-05-10T20:46:54;17.40;76.60
19258;DHT22;9763;48.780;9.212;2023-05-10T20:50:17;17.40;76.40
19258;DHT22;9763;48.780;9.212;2023-05-10T20:53:41;17.40;76.20
19258;DHT22;9763;48.780;9.212;2023-05-10T20:57:06;17.30;76.00
19258;DHT22;9763;48.780;9.212;2023-05-10T21:00:30;17.30;76.20
19258;DHT22;9763;48.780;9.212;2023-05-10T21:03:53;17.20;76.10
19258;DHT22;9763;48.780;9.212;2023-05-10T21:07:17;17.30;75.90
19258;DHT22;9763;48.780;9.212;2023-05-10T21:10:40;17.20;76.20
19258;DHT22;9763;48.780;9.212;2023-05-10T21:14:05;17.10;76.20
19258;DHT22;9763;48.780;9.212;2023-05-10T21:17:31;17.10;76.30
19258;DHT22;9763;48.780;9.212;2023-05-10T21:20:54;17.20;76.40
19258;DHT22;9763;48.780;9.212;2023-05-10T21:24:18;17.10;76.20
19258;DHT22;9763;48.780;9.212;2023-05-10T21:27:42;17.10;76.30
19258;DHT22;9763;48.780;9.212;2023-05-10T21:31:07;17.10;76.30
19258;DHT22;9763;48.780;9.212;2023-05-10T21:34:30;17.10;76.20
19258;DHT22;9763;48.780;9.212;2023-05-10T21:37:54;17.00;76.20
19258;DHT22;9763;48.780;9.212;2023-05-10T21:41:18;17.00;76.40
19258;DHT22;9763;48.780;9.212;2023-05-10T21:44:42;17.00;76.40
19258;DHT22;9763;48.780;9.212;2023-05-10T21:48:07;17.00;76.80
19258;DHT22;9763;48.780;9.212;2023-05-10T21:51:31;17.00;76.00
19258;DHT22;9763;48.780;9.212;2023-05-10T21:54:54;16.90;76.20
19258;DHT22;9763;48.780;9.212;2023-05-10T21:58:18;16.90;75.90